Time;durP1;ratioP1;P1;durP2;ratioP2;P2;SDS_P1;SDS_P2;PMS_P1;PMS_P2;Temp;Humidity;BMP_temperature;BMP_pressure;BME280_temperature;BME280_humidity;BME280_pressure;Samples;Min_cycle;Max_cycle;Signal;HPM_P1;HPM_P2
2022/10/29 00:01:07;;;;;;;0.40;0.30;;;;;;;11.61;57.79;96446.84;5133106;27;20433;-53
2022/10/29 00:03:36;;;;;;;0.40;0.20;;;;;;;11.68;57.40;96445.66;5132309;27;20434;-53
2022/10/29 00:06:06;;;;;;;0.40;0.20;;;;;;;11.84;56.99;96443.97;5133380;27;20799;-53
2022/10/29 00:08:36;;;;;;;0.40;0.40;;;;;;;12.01;56.66;96444.69;5133286;27;20941;-53
2022/10/29 00:11:08;;;;;;;0.50;0.40;;;;;;;12.03;56.40;96439.91;5133170;27;20445;-53
2022/10/29 00:13:37;;;;;;;2.63;0.40;;;;;;;11.93;56.67;96437.97;5133096;27;20505;-53
2022/10/29 00:16:07;;;;;;;0.50;0.43;;;;;;;11.91;56.48;96439.25;5133279;27;20438;-53
2022/10/29 00:18:35;;;;;;;1.47;0.40;;;;;;;11.85;57.03;96437.59;5132982;27;20425;-53
2022/10/29 00:21:06;;;;;;;0.40;0.30;;;;;;;11.93;56.55;96437.97;5132767;27;20428;-53
2022/10/29 00:23:34;;;;;;;0.50;0.30;;;;;;;12.01;56.50;96431.41;5132240;27;20440;-53
2022/10/29 00:26:03;;;;;;;0.50;0.50;;;;;;;11.95;56.51;96440.34;5132763;27;20808;-53
2022/10/29 00:28:33;;;;;;;0.40;0.30;;;;;;;11.96;56.76;96445.44;5133109;27;20425;-53
2022/10/29 00:31:05;;;;;;;0.50;0.30;;;;;;;11.07;59.44;96453.84;5133125;27;20426;-53
2022/10/29 00:33:33;;;;;;;1.73;0.37;;;;;;;10.67;61.26;96462.00;5132120;27;20436;-53
2022/10/29 00:36:04;;;;;;;1.20;0.60;;;;;;;10.89;59.89;96452.28;5133050;27;20520;-53
2022/10/29 00:38:34;;;;;;;0.70;0.50;;;;;;;10.06;62.00;96375.38;5132901;27;20475;-53
2022/10/29 00:41:03;;;;;;;0.40;0.40;;;;;;;10.92;60.89;96450.97;5132792;27;20919;-53
2022/10/29 00:43:36;;;;;;;1.73;1.33;;;;;;;11.33;60.09;96448.63;5132646;27;20461;-53
2022/10/29 00:46:08;;;;;;;0.77;0.77;;;;;;;11.14;60.70;96449.16;5133007;27;20429;-53
2022/10/29 00:48:39;;;;;;;1.23;0.43;;;;;;;11.28;59.48;96443.25;5132674;27;20421;-53
2022/10/29 00:51:11;;;;;;;0.40;0.40;;;;;;;11.35;58.97;96440.44;5132489;27;20523;-53
2022/10/29 00:53:43;;;;;;;0.40;0.30;;;;;;;11.31;59.99;96434.00;5132333;27;21093;-53
2022/10/29 00:56:12;;;;;;;0.40;0.27;;;;;;;11.29;59.38;96431.59;5132864;27;20436;-53
2022/10/29 00:58:42;;;;;;;0.40;0.30;;;;;;;11.29;59.11;96428.94;5132720;27;20430;-53
2022/10/29 01:01:10;;;;;;;0.40;0.30;;;;;;;11.41;58.02;96419.00;5133000;27;20440;-53
2022/10/29 01:03:39;;;;;;;0.40;0.20;;;;;;;11.58;58.22;96418.13;5132811;27;20482;-53
2022/10/29 01:06:08;;;;;;;0.60;0.50;;;;;;;11.62;58.35;96416.59;5133002;27;20429;-53
2022/10/29 01:08:37;;;;;;;0.40;0.27;;;;;;;11.57;58.56;96414.69;5132698;27;20904;-53
2022/10/29 01:11:22;;;;;;;0.40;0.20;;;;;;;11.46;59.07;96412.94;5132372;27;20435;-53
2022/10/29 01:14:06;;;;;;;0.40;0.20;;;;;;;11.21;59.18;96410.78;5132052;27;20426;-53
2022/10/29 01:16:44;;;;;;;0.40;0.30;;;;;;;10.89;60.97;96409.81;5132572;27;20429;-53
2022/10/29 01:19:22;;;;;;;0.40;0.20;;;;;;;11.24;59.94;96409.50;5131991;27;20468;-53
2022/10/29 01:21:56;;;;;;;0.40;0.30;;;;;;;11.40;59.59;96393.53;5132271;27;20429;-53
2022/10/29 01:24:46;;;;;;;0.40;0.27;;;;;;;11.48;59.06;96379.78;5132253;27;20430;-53
2022/10/29 01:27:52;;;;;;;0.40;0.20;;;;;;;11.38;58.78;96402.78;5132548;27;20426;-53
2022/10/29 01:30:38;;;;;;;0.40;0.30;;;;;;;10.76;61.80;96412.81;5132077;27;20528;-53
2022/10/29 01:33:22;;;;;;;0.40;0.20;;;;;;;10.36;63.87;96415.66;5132846;27;20419;-53
2022/10/29 01:35:58;;;;;;;0.53;0.30;;;;;;;10.23;63.51;96410.66;5136194;27;20447;-53
2022/10/29 01:38:36;;;;;;;1.00;1.00;;;;;;;10.03;64.93;96419.06;5135976;27;20428;-53
2022/10/29 01:41:12;;;;;;;0.40;0.30;;;;;;;9.37;66.12;96350.88;5135741;27;20469;-53
2022/10/29 01:43:47;;;;;;;0.40;0.20;;;;;;;9.48;66.71;96412.72;5135326;27;20422;-53
2022/10/29 01:46:21;;;;;;;0.60;0.60;;;;;;;10.12;64.81;96407.03;5136072;27;20445;-53
2022/10/29 01:48:55;;;;;;;0.43;0.27;;;;;;;10.00;65.31;96402.81;5135867;27;20433;-53
2022/10/29 01:51:28;;;;;;;0.40;0.30;;;;;;;10.52;63.30;96400.81;5135849;27;20456;-53
2022/10/29 01:53:59;;;;;;;0.40;0.30;;;;;;;10.14;64.33;96394.34;5135833;27;20950;-53
2022/10/29 01:56:27;;;;;;;0.60;0.37;;;;;;;10.30;63.52;96390.09;5135850;27;20461;-53
2022/10/29 01:58:59;;;;;;;1.73;1.63;;;;;;;10.42;63.38;96392.69;5135423;27;20429;-53
2022/10/29 02:01:41;;;;;;;0.40;0.30;;;;;;;10.19;63.88;96394.44;5135640;27;20484;-53
2022/10/29 02:04:28;;;;;;;0.40;0.30;;;;;;;10.26;63.41;96382.88;5135403;27;20445;-53
2022/10/29 02:07:02;;;;;;;0.50;0.40;;;;;;;10.27;62.72;96372.03;5135364;27;20525;-53
2022/10/29 02:09:35;;;;;;;0.60;0.40;;;;;;;10.37;62.84;96379.38;5135332;27;20805;-53
2022/10/29 02:12:11;;;;;;;0.40;0.20;;;;;;;10.39;63.10;96374.63;5135415;27;20445;-53
2022/10/29 02:14:45;;;;;;;0.60;0.60;;;;;;;9.84;64.11;96377.13;5135322;27;20436;-53
2022/10/29 02:17:13;;;;;;;0.40;0.30;;;;;;;9.55;65.67;96379.78;5134973;27;20428;-53
2022/10/29 02:19:43;;;;;;;0.40;0.20;;;;;;;10.00;64.86;96378.97;5134865;27;20465;-53
2022/10/29 02:22:11;;;;;;;1.80;0.70;;;;;;;8.58;66.17;96201.00;5134760;27;20426;-53
2022/10/29 02:24:40;;;;;;;0.50;0.33;;;;;;;9.85;65.14;96374.25;5135075;27;20782;-53
2022/10/29 02:27:08;;;;;;;1.23;0.30;;;;;;;10.24;64.15;96383.16;5133850;27;20430;-53
2022/10/29 02:29:36;;;;;;;0.40;0.30;;;;;;;10.22;63.90;96376.47;5134684;27;20520;-53
2022/10/29 02:32:05;;;;;;;0.47;0.33;;;;;;;9.84;65.00;96385.84;5134914;27;20433;-53
2022/10/29 02:34:33;;;;;;;0.50;0.33;;;;;;;10.22;63.63;96377.25;5133953;27;20501;-53
2022/10/29 02:37:03;;;;;;;0.50;0.40;;;;;;;10.06;64.97;96381.50;5134489;27;20425;-53
2022/10/29 02:39:31;;;;;;;0.40;0.30;;;;;;;10.40;63.65;96386.84;5134327;27;20428;-53
2022/10/29 02:42:00;;;;;;;0.43;0.30;;;;;;;9.97;63.76;96319.34;5134372;27;20449;-53
2022/10/29 02:44:28;;;;;;;0.43;0.43;;;;;;;10.35;63.92;96369.00;5134133;27;20436;-53
2022/10/29 02:46:56;;;;;;;0.40;0.30;;;;;;;10.63;62.24;96379.50;5134580;27;20447;-53
2022/10/29 02:49:25;;;;;;;1.37;0.50;;;;;;;10.54;63.19;96377.50;5134175;27;20439;-53
2022/10/29 02:51:53;;;;;;;0.40;0.30;;;;;;;10.53;63.08;96382.00;5134522;27;20423;-53
2022/10/29 02:54:22;;;;;;;6.13;1.80;;;;;;;10.47;63.30;96367.06;5134512;27;20787;-53
2022/10/29 02:56:51;;;;;;;0.60;0.40;;;;;;;10.59;62.51;96370.44;5134417;27;20459;-54
2022/10/29 02:59:19;;;;;;;0.50;0.50;;;;;;;10.75;62.06;96374.09;5134347;27;20433;-54
2022/10/29 03:01:47;;;;;;;0.43;0.37;;;;;;;10.85;61.59;96368.94;5133958;27;20476;-54
2022/10/29 03:04:16;;;;;;;0.40;0.23;;;;;;;9.93;64.79;96381.00;5134139;27;20542;-54
2022/10/29 03:06:44;;;;;;;0.50;0.30;;;;;;;10.64;63.20;96367.84;5134377;27;20426;-54
2022/10/29 03:09:12;;;;;;;0.40;0.30;;;;;;;10.89;61.64;96370.03;5133929;27;20449;-53
2022/10/29 03:11:42;;;;;;;0.40;0.30;;;;;;;11.10;60.72;96374.56;5134110;27;20434;-53
2022/10/29 03:14:10;;;;;;;0.60;0.30;;;;;;;11.12;60.71;96375.13;5134175;27;20417;-54
2022/10/29 03:16:38;;;;;;;0.37;0.20;;;;;;;10.89;60.78;96354.13;5133988;27;20430;-54
2022/10/29 03:19:07;;;;;;;0.40;0.30;;;;;;;10.70;62.05;96374.81;5133648;27;20503;-54
2022/10/29 03:21:35;;;;;;;0.40;0.20;;;;;;;10.84;61.88;96373.44;5133798;27;20484;-54
2022/10/29 03:24:04;;;;;;;0.37;0.20;;;;;;;10.84;61.43;96368.13;5133505;27;20459;-54
2022/10/29 03:26:32;;;;;;;0.40;0.40;;;;;;;10.70;61.87;96366.09;5133258;27;20460;-54
2022/10/29 03:29:04;;;;;;;0.40;0.30;;;;;;;10.92;61.62;96371.41;5133763;27;20507;-53
2022/10/29 03:31:32;;;;;;;0.50;0.30;;;;;;;10.79;62.12;96375.22;5133498;27;20781;-53
2022/10/29 03:34:01;;;;;;;0.40;0.30;;;;;;;10.96;60.88;96365.34;5133733;27;20780;-54
2022/10/29 03:36:29;;;;;;;0.40;0.30;;;;;;;10.72;62.18;96378.06;5133760;27;20417;-54
2022/10/29 03:38:57;;;;;;;1.77;0.27;;;;;;;10.36;63.31;96369.81;5132967;27;20444;-53
2022/10/29 03:41:25;;;;;;;0.50;0.47;;;;;;;10.05;64.26;96374.59;5133561;27;20953;-53
2022/10/29 03:43:54;;;;;;;0.90;0.40;;;;;;;10.03;64.79;96379.31;5133627;27;20783;-53
2022/10/29 03:46:28;;;;;;;0.40;0.20;;;;;;;10.19;63.45;96373.25;5133036;27;20835;-53
2022/10/29 03:48:56;;;;;;;0.40;0.30;;;;;;;10.16;63.40;96376.41;5133071;27;20951;-53
2022/10/29 03:51:25;;;;;;;0.40;0.20;;;;;;;9.88;64.87;96373.75;5133161;27;20425;-53
2022/10/29 03:53:53;;;;;;;0.40;0.20;;;;;;;9.40;66.21;96374.22;5133433;27;20488;-53
2022/10/29 03:56:21;;;;;;;1.17;1.17;;;;;;;9.83;64.85;96378.97;5132295;27;20436;-53
2022/10/29 03:58:49;;;;;;;0.40;0.30;;;;;;;9.90;64.64;96386.75;5133373;27;20418;-54
2022/10/29 04:01:18;;;;;;;0.60;0.60;;;;;;;9.98;64.32;96371.28;5132861;27;20500;-54
2022/10/29 04:03:48;;;;;;;0.50;0.40;;;;;;;10.00;64.14;96371.03;5133193;27;20830;-53
2022/10/29 04:06:17;;;;;;;0.40;0.30;;;;;;;9.92;64.44;96371.44;5132932;27;20944;-53
2022/10/29 04:08:45;;;;;;;0.70;0.50;;;;;;;9.99;64.73;96382.69;5132874;27;20526;-53
2022/10/29 04:11:14;;;;;;;0.50;0.40;;;;;;;9.80;64.80;96382.09;5133115;27;20431;-54
2022/10/29 04:13:42;;;;;;;0.30;0.20;;;;;;;9.66;65.12;96378.16;5132970;27;20434;-53
2022/10/29 04:16:10;;;;;;;0.40;0.30;;;;;;;8.57;68.30;96313.03;5133043;27;20436;-53
2022/10/29 04:18:39;;;;;;;0.40;0.30;;;;;;;9.09;69.52;96398.44;5132625;27;20496;-53
2022/10/29 04:21:09;;;;;;;0.50;0.50;;;;;;;9.14;69.74;96387.16;5132894;27;20462;-53
2022/10/29 04:23:57;;;;;;;0.40;0.30;;;;;;;8.98;70.45;96393.97;5132425;27;21042;-53
2022/10/29 04:26:45;;;;;;;0.40;0.40;;;;;;;8.92;70.70;96393.09;5132268;27;20531;-52
2022/10/29 04:29:35;;;;;;;0.50;0.30;;;;;;;9.16;69.25;96395.69;5132259;27;20520;-54
2022/10/29 04:32:04;;;;;;;0.53;0.50;;;;;;;9.12;69.49;96392.69;5132822;27;20893;-53
2022/10/29 04:34:32;;;;;;;0.70;0.67;;;;;;;8.84;70.78;96395.25;5132680;27;20434;-53
2022/10/29 04:37:02;;;;;;;1.03;1.03;;;;;;;8.62;72.04;96396.91;5132726;27;20433;-53
2022/10/29 04:39:30;;;;;;;0.50;0.40;;;;;;;8.85;71.70;96386.31;5132306;27;20422;-53
2022/10/29 04:41:58;;;;;;;0.40;0.30;;;;;;;8.97;70.31;96394.22;5132626;27;20474;-53
2022/10/29 04:44:26;;;;;;;0.47;0.40;;;;;;;9.00;70.41;96396.41;5132370;27;20430;-53
2022/10/29 04:46:54;;;;;;;0.63;0.63;;;;;;;8.97;70.46;96391.56;5132338;27;20429;-53
2022/10/29 04:49:23;;;;;;;0.60;0.60;;;;;;;9.03;70.20;96388.00;5132037;27;20414;-53
2022/10/29 04:51:51;;;;;;;0.40;0.30;;;;;;;9.07;70.21;96386.50;5131847;27;20494;-53
2022/10/29 04:54:21;;;;;;;1.57;1.33;;;;;;;9.20;69.37;96388.88;5132622;27;20811;-54
2022/10/29 04:56:49;;;;;;;0.47;0.33;;;;;;;9.11;69.74;96387.66;5132149;27;20940;-53
2022/10/29 04:59:18;;;;;;;0.40;0.30;;;;;;;9.21;69.37;96387.84;5131989;27;20457;-53
2022/10/29 05:01:46;;;;;;;3.90;1.17;;;;;;;9.27;68.59;96381.63;5132136;27;20477;-53
2022/10/29 05:04:14;;;;;;;0.40;0.30;;;;;;;9.09;68.89;96387.88;5131561;27;20441;-54
2022/10/29 05:06:43;;;;;;;0.73;0.60;;;;;;;8.99;69.94;96392.13;5132364;27;20782;-53
2022/10/29 05:09:11;;;;;;;0.60;0.47;;;;;;;8.92;70.53;96393.09;5136536;27;20868;-53
2022/10/29 05:11:40;;;;;;;0.87;0.87;;;;;;;8.53;73.90;96404.34;5136206;27;20528;-54
2022/10/29 05:14:09;;;;;;;0.60;0.40;;;;;;;8.78;73.40;96402.28;5136101;27;20425;-54
2022/10/29 05:16:37;;;;;;;0.70;0.30;;;;;;;8.70;73.04;96401.84;5136262;27;20429;-53
2022/10/29 05:19:05;;;;;;;0.87;0.87;;;;;;;8.72;73.31;96411.16;5135630;27;20914;-53
2022/10/29 05:21:34;;;;;;;1.37;1.33;;;;;;;9.00;71.83;96409.63;5135884;27;20461;-53
2022/10/29 05:24:02;;;;;;;0.83;0.73;;;;;;;8.97;71.18;96428.59;5135583;27;20474;-53
2022/10/29 05:26:31;;;;;;;0.57;0.53;;;;;;;8.82;72.39;96419.31;5135508;27;20487;-53
2022/10/29 05:29:01;;;;;;;3.77;0.60;;;;;;;9.37;69.99;96413.56;5135799;27;20445;-53
2022/10/29 05:31:29;;;;;;;0.40;0.40;;;;;;;9.79;67.73;96403.53;5135542;27;20882;-52
2022/10/29 05:33:57;;;;;;;0.60;0.60;;;;;;;10.20;67.27;96408.50;5135795;27;20426;-52
2022/10/29 05:36:25;;;;;;;0.80;0.80;;;;;;;10.11;66.16;96394.00;5135834;27;20753;-53
2022/10/29 05:38:54;;;;;;;0.50;0.40;;;;;;;10.87;64.10;96403.16;5135876;27;20452;-54
2022/10/29 05:41:22;;;;;;;2.40;0.80;;;;;;;10.87;63.79;96400.50;5135763;27;20429;-52
2022/10/29 05:43:50;;;;;;;4.90;0.97;;;;;;;10.71;64.49;96388.88;5135622;27;20817;-52
2022/10/29 05:46:20;;;;;;;0.50;0.50;;;;;;;10.85;63.97;96395.47;5135777;27;20419;-52
2022/10/29 05:48:48;;;;;;;0.60;0.60;;;;;;;11.27;62.74;96393.88;5134638;27;20812;-53
2022/10/29 05:51:17;;;;;;;0.70;0.70;;;;;;;11.24;63.08;96382.94;5135261;27;20440;-54
2022/10/29 05:53:45;;;;;;;8.33;0.70;;;;;;;11.90;60.97;96400.44;5134991;27;20438;-53
2022/10/29 05:56:13;;;;;;;2.10;0.80;;;;;;;12.12;61.04;96409.16;5135782;27;20421;-54
2022/10/29 05:58:42;;;;;;;4.10;1.10;;;;;;;12.29;60.64;96407.22;5135335;27;20428;-54
2022/10/29 06:01:11;;;;;;;1.50;1.40;;;;;;;12.74;59.17;96404.91;5135547;27;20910;-54
2022/10/29 06:03:41;;;;;;;1.23;1.13;;;;;;;13.12;58.26;96411.81;5135304;27;20472;-54
2022/10/29 06:06:09;;;;;;;1.23;1.20;;;;;;;13.36;57.29;96407.66;5134211;27;20426;-55
2022/10/29 06:08:37;;;;;;;2.20;1.70;;;;;;;13.61;56.39;96419.50;5135343;27;20513;-55
2022/10/29 06:11:06;;;;;;;0.73;0.63;;;;;;;14.13;54.79;96420.16;5134960;27;20801;-56
2022/10/29 06:13:34;;;;;;;2.80;0.53;;;;;;;14.20;54.90;96417.22;5135042;27;20433;-56
2022/10/29 06:16:03;;;;;;;1.90;1.30;;;;;;;13.88;54.35;96335.63;5135032;27;20422;-56
2022/10/29 06:18:31;;;;;;;0.87;0.87;;;;;;;14.64;53.90;96423.69;5135265;27;20432;-56
2022/10/29 06:21:01;;;;;;;1.40;1.40;;;;;;;14.66;53.13;96416.22;5134946;27;20425;-55
2022/10/29 06:23:29;;;;;;;0.50;0.50;;;;;;;15.16;52.40;96400.13;5135081;27;20823;-55
2022/10/29 06:26:00;;;;;;;1.17;1.07;;;;;;;15.08;52.66;96399.84;5134761;27;20469;-55
2022/10/29 06:28:28;;;;;;;0.50;0.50;;;;;;;14.72;52.78;96404.47;5134945;27;20422;-56
2022/10/29 06:31:01;;;;;;;1.17;1.07;;;;;;;14.99;52.27;96404.16;5134451;27;20430;-55
2022/10/29 06:33:30;;;;;;;6.47;1.53;;;;;;;14.75;52.17;96403.13;5134523;27;20426;-56
2022/10/29 06:36:00;;;;;;;0.90;0.90;;;;;;;14.82;52.08;96401.00;5134878;27;20430;-56
2022/10/29 06:38:29;;;;;;;0.60;0.50;;;;;;;15.12;51.42;96399.06;5134827;27;20453;-56
2022/10/29 06:40:57;;;;;;;1.93;1.83;;;;;;;14.81;51.41;96400.19;5134299;27;20440;-57
2022/10/29 06:43:25;;;;;;;2.10;2.00;;;;;;;14.44;52.19;96413.81;5134227;27;20973;-57
2022/10/29 06:45:54;;;;;;;0.70;0.70;;;;;;;15.07;51.56;96407.09;5134342;27;20431;-58
2022/10/29 06:48:23;;;;;;;0.77;0.77;;;;;;;14.91;51.64;96410.84;5134614;27;20437;-56
2022/10/29 06:50:51;;;;;;;1.60;1.50;;;;;;;14.59;52.05;96415.69;5134256;27;20434;-56
2022/10/29 06:53:21;;;;;;;0.83;0.83;;;;;;;15.21;51.30;96413.44;5134206;27;20441;-56
2022/10/29 06:55:49;;;;;;;2.20;1.23;;;;;;;15.61;50.63;96411.75;5134174;27;20807;-55
2022/10/29 06:58:19;;;;;;;0.50;0.40;;;;;;;15.65;50.68;96402.09;5134489;27;20457;-55
2022/10/29 07:00:48;;;;;;;2.63;0.33;;;;;;;16.60;49.05;96407.94;5134327;27;20457;-55
2022/10/29 07:03:19;;;;;;;2.13;2.07;;;;;;;16.93;48.00;96383.00;5133666;27;20461;-54
2022/10/29 07:05:47;;;;;;;1.13;1.03;;;;;;;17.30;47.30;96399.25;5134015;27;20443;-54
2022/10/29 07:08:16;;;;;;;2.57;1.03;;;;;;;17.67;46.60;96399.34;5134236;27;20415;-55
2022/10/29 07:10:45;;;;;;;1.40;0.60;;;;;;;18.39;45.65;96390.00;5133861;27;20531;-55
2022/10/29 07:13:13;;;;;;;0.60;0.60;;;;;;;18.47;44.88;96388.56;5133651;27;20420;-54
2022/10/29 07:15:42;;;;;;;1.13;1.03;;;;;;;18.41;44.93;96387.03;5133645;27;20420;-54
2022/10/29 07:18:11;;;;;;;0.93;0.70;;;;;;;18.78;44.55;96383.50;5133742;27;20439;-58
2022/10/29 07:20:42;;;;;;;1.23;0.80;;;;;;;19.07;43.80;96391.34;5133252;27;20428;-56
2022/10/29 07:23:12;;;;;;;1.37;1.27;;;;;;;19.19;44.32;96378.19;5133330;27;20477;-56
2022/10/29 07:25:40;;;;;;;2.97;2.63;;;;;;;19.55;43.26;96381.84;5133167;27;20514;-54
2022/10/29 07:28:13;;;;;;;0.60;0.60;;;;;;;19.60;42.06;96379.84;5132356;27;20439;-56
2022/10/29 07:30:41;;;;;;;0.70;0.50;;;;;;;20.09;41.62;96379.03;5132776;27;20425;-56
2022/10/29 07:33:10;;;;;;;0.90;0.60;;;;;;;19.81;41.52;96374.81;5133336;27;20434;-55
2022/10/29 07:35:38;;;;;;;2.93;0.87;;;;;;;20.59;50.67;96373.59;5133395;27;20831;-52
2022/10/29 07:38:08;;;;;;;0.50;0.30;;;;;;;20.20;43.16;96363.47;5133314;27;20427;-56
2022/10/29 07:40:39;;;;;;;1.60;1.50;;;;;;;20.30;41.60;96362.44;5133094;27;20475;-53
2022/10/29 07:43:07;;;;;;;0.87;0.87;;;;;;;20.53;46.15;96364.06;5133092;27;20470;-59
2022/10/29 07:45:37;;;;;;;1.17;0.70;;;;;;;20.46;41.82;96356.41;5133412;27;20426;-60
2022/10/29 07:48:07;;;;;;;0.50;0.40;;;;;;;21.78;43.20;96351.78;5132820;27;20448;-56
2022/10/29 07:50:36;;;;;;;0.73;0.70;;;;;;;21.25;41.15;96362.72;5132881;27;20437;-58
2022/10/29 07:53:06;;;;;;;1.67;1.27;;;;;;;21.14;42.28;96337.16;5133307;27;20795;-58
2022/10/29 07:55:35;;;;;;;1.70;0.63;;;;;;;22.30;41.43;96349.94;5132845;27;20437;-58
2022/10/29 07:58:05;;;;;;;0.90;0.90;;;;;;;22.10;39.68;96347.88;5132693;27;20436;-58
2022/10/29 08:00:35;;;;;;;2.90;1.07;;;;;;;22.98;38.73;96332.03;5132916;27;20490;-57
2022/10/29 08:03:06;;;;;;;1.03;1.03;;;;;;;22.65;38.27;96332.63;5132717;27;20463;-57
2022/10/29 08:05:34;;;;;;;1.10;1.00;;;;;;;23.45;40.09;96336.34;5132866;27;20426;-56
2022/10/29 08:08:03;;;;;;;0.50;0.40;;;;;;;23.80;37.96;96334.25;5133056;27;20423;-55
2022/10/29 08:10:32;;;;;;;0.67;0.67;;;;;;;23.63;37.54;96315.41;5132732;27;20438;-55
2022/10/29 08:13:02;;;;;;;0.70;0.70;;;;;;;23.60;38.77;96322.25;5132549;27;20411;-55
2022/10/29 08:15:31;;;;;;;1.33;0.90;;;;;;;23.93;38.53;96333.19;5132461;27;20435;-55
2022/10/29 08:18:00;;;;;;;1.07;0.77;;;;;;;22.97;37.40;96325.84;5132862;27;20441;-55
2022/10/29 08:20:30;;;;;;;1.37;0.97;;;;;;;23.29;36.49;96321.75;5132827;27;20471;-54
2022/10/29 08:23:01;;;;;;;1.33;0.90;;;;;;;23.57;36.76;96308.56;5132462;27;20474;-62
2022/10/29 08:25:29;;;;;;;3.07;1.30;;;;;;;23.77;36.55;96311.31;5132450;27;20454;-58
2022/10/29 08:27:59;;;;;;;0.80;0.60;;;;;;;23.82;35.44;96303.00;5132184;27;20445;-53
2022/10/29 08:30:27;;;;;;;0.80;0.60;;;;;;;25.78;35.15;96314.81;5132462;27;20555;-52
2022/10/29 08:32:56;;;;;;;0.57;0.57;;;;;;;25.80;35.04;96307.94;5132524;27;20824;-52
2022/10/29 08:35:25;;;;;;;0.70;0.70;;;;;;;24.76;33.72;96303.31;5132307;27;20484;-53
2022/10/29 08:37:54;;;;;;;0.70;0.70;;;;;;;25.01;33.63;96297.63;5131909;27;20419;-53
2022/10/29 08:40:29;;;;;;;1.17;0.80;;;;;;;24.91;33.95;96283.72;5132328;27;20503;-56
2022/10/29 08:43:48;;;;;;;5.80;0.60;;;;;;;25.80;33.19;96282.72;5134204;27;20453;-59
2022/10/29 08:46:20;;;;;;;0.63;0.60;;;;;;;25.21;32.94;96283.19;5120846;27;20478;-60
2022/10/29 08:48:53;;;;;;;0.50;0.50;;;;;;;25.55;33.01;96276.50;5136443;27;20423;-59
2022/10/29 08:51:25;;;;;;;0.50;0.43;;;;;;;25.93;31.86;96270.69;5136531;27;20425;-59
2022/10/29 08:53:57;;;;;;;0.87;0.57;;;;;;;26.00;31.93;96265.44;5136747;27;20442;-62
2022/10/29 08:56:48;;;;;;;0.40;0.40;;;;;;;24.85;32.09;96196.34;5136254;27;20467;-62
2022/10/29 08:59:18;;;;;;;0.90;0.40;;;;;;;24.92;32.65;96239.19;5136589;27;20426;-62
2022/10/29 09:01:47;;;;;;;0.57;0.57;;;;;;;25.54;32.43;96258.66;5135912;27;20442;-62
2022/10/29 09:04:23;;;;;;;0.53;0.53;;;;;;;26.71;31.60;96249.19;5136666;27;20523;-63
2022/10/29 09:07:19;;;;;;;0.67;0.50;;;;;;;26.78;30.90;96215.94;5136589;27;20425;-62
2022/10/29 09:09:56;;;;;;;0.63;0.63;;;;;;;26.43;31.46;96243.78;5136213;27;20427;-61
2022/10/29 09:12:40;;;;;;;0.40;0.37;;;;;;;27.02;30.63;96238.31;5136045;27;20918;-54
2022/10/29 09:15:30;;;;;;;0.37;0.30;;;;;;;27.38;31.04;96229.06;5136399;27;20781;-54
2022/10/29 09:18:18;;;;;;;0.60;0.50;;;;;;;26.65;30.86;96231.53;5136478;27;20431;-60
2022/10/29 09:20:53;;;;;;;1.80;0.77;;;;;;;28.32;28.93;96234.22;5135749;27;20767;-56
2022/10/29 09:23:46;;;;;;;0.70;0.70;;;;;;;28.62;30.30;96223.47;5135496;27;20421;-58
2022/10/29 09:26:20;;;;;;;0.40;0.30;;;;;;;27.92;29.35;96217.41;5135713;27;20474;-56
2022/10/29 09:28:59;;;;;;;0.50;0.50;;;;;;;28.04;29.73;96207.19;5135858;27;20542;-56
2022/10/29 09:31:34;;;;;;;1.23;1.23;;;;;;;27.85;29.87;96157.31;5135912;27;20430;-57
2022/10/29 09:34:11;;;;;;;1.07;1.07;;;;;;;27.80;29.81;96207.44;5136183;27;20845;-57
2022/10/29 09:36:40;;;;;;;1.13;0.40;;;;;;;28.01;30.37;96198.94;5136262;27;20422;-57
2022/10/29 09:39:13;;;;;;;0.50;0.40;;;;;;;28.78;29.02;96184.03;5135720;27;20425;-56
2022/10/29 09:41:44;;;;;;;0.40;0.30;;;;;;;28.49;29.33;96189.34;5135657;27;20430;-56
2022/10/29 09:44:21;;;;;;;0.73;0.50;;;;;;;28.56;29.49;96146.59;5135744;27;20992;-56
2022/10/29 09:46:58;;;;;;;2.43;0.60;;;;;;;28.91;28.32;96184.63;5135886;27;20422;-56
2022/10/29 09:49:43;;;;;;;0.70;0.67;;;;;;;28.18;29.54;96130.34;5135967;27;20445;-58
2022/10/29 09:52:17;;;;;;;0.40;0.40;;;;;;;28.97;28.75;96166.78;5135817;27;20437;-59
2022/10/29 09:54:48;;;;;;;2.00;0.47;;;;;;;29.99;28.26;96168.25;5134704;27;20919;-59
2022/10/29 09:57:20;;;;;;;0.40;0.30;;;;;;;31.36;27.32;96157.00;5135696;27;20431;-59
2022/10/29 09:59:53;;;;;;;0.40;0.33;;;;;;;31.68;25.83;96129.75;5134911;27;20430;-60
2022/10/29 10:02:29;;;;;;;0.30;0.30;;;;;;;30.47;26.72;96149.22;5135807;27;20422;-56
2022/10/29 10:05:04;;;;;;;0.40;0.33;;;;;;;29.60;27.12;96152.50;5135840;27;20458;-55
2022/10/29 10:07:32;;;;;;;0.50;0.50;;;;;;;30.16;26.96;96140.28;5134781;27;20430;-55
2022/10/29 10:10:02;;;;;;;1.60;0.90;;;;;;;28.90;27.18;96110.16;5135516;27;20434;-53
2022/10/29 10:12:46;;;;;;;0.50;0.40;;;;;;;30.06;26.56;96132.78;5135274;27;20429;-54
2022/10/29 10:15:22;;;;;;;0.43;0.30;;;;;;;31.21;25.66;96123.25;5135158;27;20520;-53
2022/10/29 10:17:57;;;;;;;0.40;0.30;;;;;;;31.30;25.47;96120.94;5135159;27;20422;-54
2022/10/29 10:20:29;;;;;;;0.63;0.63;;;;;;;31.81;25.67;96109.06;5135202;27;20790;-54
2022/10/29 10:22:57;;;;;;;0.57;0.47;;;;;;;30.58;25.33;96046.94;5134795;27;20926;-54
2022/10/29 10:25:33;;;;;;;0.40;0.40;;;;;;;30.94;26.50;96102.72;5134565;27;20496;-54
2022/10/29 10:28:17;;;;;;;0.70;0.70;;;;;;;29.83;27.38;96104.78;5134999;27;20424;-54
2022/10/29 10:30:46;;;;;;;0.50;0.50;;;;;;;30.78;25.63;96094.78;5135215;27;20429;-54
2022/10/29 10:33:24;;;;;;;0.53;0.53;;;;;;;30.86;25.15;96101.09;5134842;27;20427;-54
2022/10/29 10:35:54;;;;;;;0.40;0.30;;;;;;;31.36;24.57;96086.53;5134965;27;20438;-54
2022/10/29 10:38:22;;;;;;;0.67;0.67;;;;;;;31.43;24.63;96074.81;5134884;27;20429;-54
2022/10/29 10:41:01;;;;;;;0.30;0.30;;;;;;;30.58;25.34;96073.50;5134563;27;20418;-54
2022/10/29 10:43:31;;;;;;;0.50;0.40;;;;;;;30.17;25.60;96073.50;5134227;27;20810;-54
2022/10/29 10:46:04;;;;;;;0.40;0.30;;;;;;;31.97;23.78;96060.16;5134628;27;20458;-54
2022/10/29 10:48:33;;;;;;;0.97;0.40;;;;;;;30.26;24.00;96023.19;5134045;27;20426;-54
2022/10/29 10:51:20;;;;;;;0.40;0.30;;;;;;;30.08;24.80;96062.09;5134414;27;20437;-54
2022/10/29 10:53:50;;;;;;;1.17;0.50;;;;;;;29.57;24.83;96056.44;5134439;27;20422;-54
2022/10/29 10:56:20;;;;;;;0.60;0.50;;;;;;;31.46;23.99;96043.16;5134356;27;20415;-55
2022/10/29 10:59:01;;;;;;;0.40;0.40;;;;;;;33.38;22.62;96043.63;5134052;27;20898;-54
2022/10/29 11:01:35;;;;;;;0.40;0.30;;;;;;;32.50;23.46;96039.06;5134150;27;20414;-55
2022/10/29 11:04:13;;;;;;;0.40;0.40;;;;;;;31.60;24.06;96035.75;5133747;27;20872;-55
2022/10/29 11:06:45;;;;;;;0.40;0.37;;;;;;;31.48;23.31;96027.09;5133804;27;20848;-54
2022/10/29 11:09:22;;;;;;;0.50;0.50;;;;;;;32.84;22.93;96024.94;5133625;27;20442;-54
2022/10/29 11:11:57;;;;;;;0.30;0.30;;;;;;;33.35;21.58;96025.19;5133665;27;20453;-55
2022/10/29 11:14:33;;;;;;;0.47;0.47;;;;;;;33.36;21.91;96021.28;5134031;27;20864;-55
2022/10/29 11:17:04;;;;;;;0.63;0.33;;;;;;;33.14;22.46;96019.78;5133877;27;20249;-55
2022/10/29 11:19:38;;;;;;;0.37;0.30;;;;;;;33.02;23.11;96009.19;5133634;27;20465;-64
2022/10/29 11:22:17;;;;;;;0.50;0.50;;;;;;;34.12;20.82;95998.50;5133368;27;20191;-55
2022/10/29 11:24:53;;;;;;;0.57;0.47;;;;;;;33.12;21.19;96000.16;5133179;27;20596;-55
2022/10/29 11:27:29;;;;;;;0.50;0.40;;;;;;;32.62;21.43;95992.03;5133256;27;20579;-56
2022/10/29 11:30:04;;;;;;;0.63;0.40;;;;;;;33.27;21.49;95989.91;5133400;27;20270;-55
2022/10/29 11:32:46;;;;;;;1.03;0.27;;;;;;;33.18;21.25;95969.13;5133082;27;20184;-55
2022/10/29 11:35:20;;;;;;;0.50;0.20;;;;;;;33.70;21.52;95966.53;5133549;27;20193;-55
2022/10/29 11:37:56;;;;;;;0.40;0.30;;;;;;;34.55;20.05;95966.69;5133321;27;20195;-55
2022/10/29 11:40:34;;;;;;;0.47;0.40;;;;;;;33.85;21.54;95963.28;5133358;27;20180;-55
2022/10/29 11:43:03;;;;;;;0.30;0.30;;;;;;;35.11;21.05;95956.28;5133093;27;20571;-56
2022/10/29 11:45:57;;;;;;;0.40;0.30;;;;;;;33.38;20.67;95774.28;5133363;27;20219;-55
2022/10/29 11:48:35;;;;;;;0.50;0.40;;;;;;;33.54;20.85;95953.25;5132969;27;20184;-56
2022/10/29 11:51:16;;;;;;;0.40;0.40;;;;;;;32.74;21.26;95946.88;5133030;27;20184;-55
2022/10/29 11:53:57;;;;;;;0.50;0.50;;;;;;;33.71;21.75;95933.13;5132759;27;20188;-56
2022/10/29 11:56:37;;;;;;;0.50;0.30;;;;;;;33.84;20.92;95939.72;5132881;27;20184;-55